Time;durP1;ratioP1;P1;durP2;ratioP2;P2;SDS_P1;SDS_P2;PMS_P1;PMS_P2;Temp;Humidity;BMP_temperature;BMP_pressure;BME280_temperature;BME280_humidity;BME280_pressure;Samples;Min_cycle;Max_cycle;Signal;HPM_P1;HPM_P2
2023/02/20 00:00:29;;;;;;;7.70;5.25;;;;;;;10.58;58.25;99937.06;5076051;28;20089;-46
2023/02/20 00:02:57;;;;;;;8.82;5.75;;;;;;;10.41;58.98;99932.03;5094242;28;20036;-46
2023/02/20 00:05:25;;;;;;;7.22;5.32;;;;;;;10.35;59.12;99936.13;5059418;28;20043;-47
2023/02/20 00:07:53;;;;;;;6.15;4.90;;;;;;;10.16;59.18;99932.84;5076032;28;20020;-47
2023/02/20 00:10:23;;;;;;;11.13;5.75;;;;;;;9.95;60.10;99929.94;5075982;28;20028;-46
2023/02/20 00:12:50;;;;;;;13.23;5.47;;;;;;;9.89;61.08;99927.97;5094128;28;20031;-47
2023/02/20 00:15:19;;;;;;;8.48;5.32;;;;;;;9.86;60.94;99934.38;5075839;28;20032;-47
2023/02/20 00:17:54;;;;;;;8.18;6.13;;;;;;;9.76;61.12;99934.53;5093959;28;20023;-47
2023/02/20 00:20:38;;;;;;;7.32;5.65;;;;;;;9.58;61.21;99928.63;5093960;28;20110;-46
2023/02/20 00:23:20;;;;;;;7.43;4.97;;;;;;;9.38;61.82;99923.69;5075773;28;20031;-47
2023/02/20 00:25:57;;;;;;;9.20;4.78;;;;;;;9.45;62.12;99929.09;5058980;28;20127;-47
2023/02/20 00:28:24;;;;;;;12.90;5.28;;;;;;;9.53;61.79;99930.91;5093749;28;20020;-47
2023/02/20 00:30:55;;;;;;;16.20;4.90;;;;;;;9.55;62.17;99934.19;5093664;28;20102;-48
2023/02/20 00:36:07;;;;;;;5.78;4.72;;;;;;;9.63;61.91;99930.75;5093125;28;20513;-46
2023/02/20 00:38:33;;;;;;;4.90;4.38;;;;;;;9.48;61.72;99938.44;5093573;28;20036;-47
2023/02/20 00:41:00;;;;;;;9.68;4.28;;;;;;;9.29;62.14;99929.88;5093543;28;20024;-47
2023/02/20 00:43:27;;;;;;;9.10;4.40;;;;;;;9.25;62.78;99940.84;5075386;28;20035;-46
2023/02/20 00:45:54;;;;;;;6.55;4.25;;;;;;;9.37;62.71;99948.25;5093502;28;20486;-46
2023/02/20 00:48:23;;;;;;;14.00;4.65;;;;;;;9.41;62.67;99943.50;5075163;28;20073;-46
2023/02/20 00:50:49;;;;;;;7.95;4.50;;;;;;;9.47;62.54;99942.84;5093403;28;20081;-46
2023/02/20 00:53:16;;;;;;;11.07;4.50;;;;;;;9.55;62.59;99937.63;5074871;28;20036;-47
2023/02/20 00:55:45;;;;;;;7.38;4.18;;;;;;;9.76;62.38;99931.91;5087568;28;20105;-46
2023/02/20 00:58:12;;;;;;;6.68;3.90;;;;;;;9.99;62.25;99939.09;5113550;28;20057;-46
2023/02/20 01:00:39;;;;;;;14.00;4.70;;;;;;;10.32;61.86;99944.31;5112721;28;20049;-47
2023/02/20 01:03:06;;;;;;;8.32;4.78;;;;;;;10.61;61.01;99940.31;5112020;28;20039;-46
2023/02/20 01:05:32;;;;;;;9.32;4.53;;;;;;;10.63;60.02;99938.34;5112120;28;20024;-46
2023/02/20 01:08:00;;;;;;;5.00;4.45;;;;;;;10.48;59.73;99939.03;5113399;28;20027;-46
2023/02/20 01:10:27;;;;;;;8.95;4.78;;;;;;;10.36;60.09;99933.34;5113400;28;20110;-46
2023/02/20 01:12:54;;;;;;;5.68;4.15;;;;;;;10.37;60.27;99926.28;5095015;28;20032;-46
2023/02/20 01:15:21;;;;;;;25.55;5.90;;;;;;;10.50;60.76;99926.59;5113311;28;20016;-46
2023/02/20 01:17:48;;;;;;;20.35;6.88;;;;;;;10.73;60.50;99923.22;5095193;28;20116;-47
2023/02/20 01:20:15;;;;;;;16.30;6.18;;;;;;;10.89;60.48;99928.38;5111789;28;20049;-46
2023/02/20 01:22:43;;;;;;;10.23;5.05;;;;;;;11.08;60.22;99929.75;5111882;28;20400;-46
2023/02/20 01:25:11;;;;;;;12.70;4.85;;;;;;;11.14;59.75;99929.06;5113119;28;20456;-46
2023/02/20 01:27:38;;;;;;;15.05;4.72;;;;;;;11.18;58.92;99940.84;5113100;28;20024;-46
2023/02/20 01:30:05;;;;;;;18.83;5.97;;;;;;;11.19;58.65;99933.81;5112957;28;20020;-46
2023/02/20 01:32:32;;;;;;;17.77;5.65;;;;;;;11.20;58.10;99938.06;5111660;28;20054;-46
2023/02/20 01:34:59;;;;;;;12.25;5.13;;;;;;;11.15;58.14;99938.59;5112876;28;20016;-47
2023/02/20 01:37:27;;;;;;;8.60;5.03;;;;;;;11.18;57.83;99932.16;5112862;28;20541;-46
2023/02/20 01:39:57;;;;;;;11.70;5.05;;;;;;;11.06;57.62;99923.03;5111501;28;20483;-46
2023/02/20 01:42:27;;;;;;;11.18;5.43;;;;;;;10.86;57.36;99918.22;5111443;28;20032;-46
2023/02/20 01:45:39;;;;;;;16.73;6.05;;;;;;;10.70;58.41;99905.16;5112753;28;20031;-46
2023/02/20 01:48:30;;;;;;;8.68;4.75;;;;;;;10.77;58.31;99908.75;5094420;28;20119;-46
2023/02/20 01:50:59;;;;;;;21.20;6.10;;;;;;;10.72;59.02;99901.38;5111554;28;20027;-46
2023/02/20 01:53:30;;;;;;;6.43;4.68;;;;;;;10.86;58.90;99899.81;5107652;28;20047;-46
2023/02/20 01:56:08;;;;;;;9.32;4.20;;;;;;;10.96;58.95;99897.78;5092176;28;20093;-47
2023/02/20 01:58:58;;;;;;;10.52;5.25;;;;;;;11.04;58.84;99898.75;5085271;28;20089;-47
2023/02/20 02:01:25;;;;;;;14.40;6.18;;;;;;;11.22;58.59;99901.09;5107736;28;20118;-47
2023/02/20 02:04:11;;;;;;;15.43;5.35;;;;;;;11.31;57.97;99898.25;5107796;28;20020;-48
2023/02/20 02:06:43;;;;;;;8.07;5.13;;;;;;;11.18;57.47;99900.63;5085661;28;20028;-47
2023/02/20 02:09:48;;;;;;;21.00;6.90;;;;;;;10.79;57.83;99904.16;5090702;28;20046;-47
2023/02/20 02:12:26;;;;;;;19.10;6.25;;;;;;;10.67;58.76;99906.31;5091951;28;20403;-48
2023/02/20 02:14:55;;;;;;;34.17;9.73;;;;;;;10.79;58.58;99902.31;5091961;28;20020;-47
2023/02/20 02:17:46;;;;;;;21.25;6.85;;;;;;;10.96;58.25;99908.31;5066464;28;20028;-47
2023/02/20 02:20:43;;;;;;;17.98;6.10;;;;;;;11.10;57.93;99911.19;5091903;28;20107;-46
2023/02/20 02:23:54;;;;;;;11.77;4.75;;;;;;;11.21;57.46;99916.06;5091902;28;20035;-47
2023/02/20 02:26:53;;;;;;;20.73;6.78;;;;;;;11.11;57.42;99918.09;5082917;28;20024;-47
2023/02/20 02:30:19;;;;;;;14.70;4.88;;;;;;;11.18;57.41;99916.41;5090447;28;20024;-46
2023/02/20 02:33:56;;;;;;;27.98;6.72;;;;;;;11.23;57.31;99900.09;5091829;28;20046;-47
2023/02/20 02:37:22;;;;;;;12.55;4.40;;;;;;;11.25;56.96;99898.97;5079870;28;20405;-47
2023/02/20 02:40:41;;;;;;;14.30;4.80;;;;;;;11.24;57.34;99896.50;5086673;28;20020;-46
2023/02/20 02:43:38;;;;;;;29.02;6.63;;;;;;;11.25;57.16;99898.97;5091730;28;20024;-47
2023/02/20 02:47:06;;;;;;;7.47;4.40;;;;;;;11.31;56.92;99893.00;5091571;28;20024;-48
2023/02/20 02:49:57;;;;;;;14.80;4.80;;;;;;;11.36;57.36;99895.09;5070923;28;20056;-47
2023/02/20 02:55:29;;;;;;;38.70;6.53;;;;;;;11.15;56.91;99901.00;5084614;28;20425;-46
2023/02/20 02:57:56;;;;;;;14.10;6.25;;;;;;;10.99;57.26;99901.91;5091504;28;20055;-47
2023/02/20 03:00:37;;;;;;;17.40;6.13;;;;;;;10.93;57.84;99900.78;5070268;28;20111;-46
2023/02/20 03:03:34;;;;;;;21.65;5.47;;;;;;;10.83;58.14;99894.94;5090103;28;20028;-47
2023/02/20 03:06:46;;;;;;;30.05;8.27;;;;;;;10.73;58.75;99891.69;5091465;28;20440;-48
2023/02/20 03:12:27;;;;;;;10.65;4.65;;;;;;;10.79;59.26;99885.75;5089988;28;20051;-48
2023/02/20 03:15:43;;;;;;;12.63;4.38;;;;;;;11.00;58.83;99893.84;5091401;28;20031;-47
2023/02/20 03:18:45;;;;;;;6.63;5.25;;;;;;;11.16;57.92;99900.00;5072620;28;20032;-47
2023/02/20 03:21:30;;;;;;;18.95;5.13;;;;;;;11.18;57.81;99888.31;5072794;28;20062;-48
2023/02/20 03:24:19;;;;;;;6.03;5.03;;;;;;;11.13;57.89;99897.72;5071213;28;20401;-48
2023/02/20 03:26:48;;;;;;;7.90;4.80;;;;;;;11.02;57.98;99893.66;5073374;28;20041;-46
2023/02/20 03:29:41;;;;;;;8.23;4.93;;;;;;;11.06;57.99;99888.88;5094950;28;20031;-46
2023/02/20 03:43:26;;;;;;;7.72;4.25;;;;;;;10.43;58.12;99870.50;5095057;28;20051;-46
2023/02/20 03:49:56;;;;;;;9.20;5.07;;;;;;;10.19;58.20;99868.72;5094101;28;20401;-47
2023/02/20 03:52:23;;;;;;;9.32;4.95;;;;;;;10.07;57.99;99865.66;5094534;28;20454;-47
2023/02/20 03:55:02;;;;;;;6.95;4.50;;;;;;;10.02;58.90;99867.97;5102430;28;20420;-48
2023/02/20 03:57:56;;;;;;;9.38;5.43;;;;;;;9.99;59.02;99863.03;5113472;28;20028;-47
2023/02/20 04:00:41;;;;;;;7.03;5.85;;;;;;;9.80;58.11;99869.47;5096396;28;20529;-46
2023/02/20 04:03:17;;;;;;;10.45;5.28;;;;;;;9.17;58.08;99874.38;5113471;28;20031;-46
2023/02/20 04:05:48;;;;;;;11.45;6.40;;;;;;;8.68;59.22;99871.66;5114696;28;20031;-46
2023/02/20 04:09:10;;;;;;;9.55;5.65;;;;;;;8.48;60.74;99872.88;5092924;28;20028;-46
2023/02/20 04:12:20;;;;;;;9.35;6.28;;;;;;;8.13;60.83;99869.41;5109185;28;20031;-46
2023/02/20 04:14:50;;;;;;;8.48;5.65;;;;;;;7.75;61.35;99867.06;5114466;28;20020;-46
2023/02/20 04:20:40;;;;;;;6.20;5.25;;;;;;;7.26;62.68;99877.09;5113850;28;20508;-47
2023/02/20 04:23:21;;;;;;;7.63;5.55;;;;;;;7.20;64.20;99875.09;5096093;28;20055;-47
2023/02/20 04:26:24;;;;;;;7.88;5.47;;;;;;;7.20;64.47;99870.72;5095887;28;20036;-47
2023/02/20 04:29:06;;;;;;;7.28;5.32;;;;;;;7.15;64.44;99879.94;5114273;28;20032;-47
2023/02/20 04:31:41;;;;;;;9.65;5.57;;;;;;;7.18;64.75;99874.41;5114206;28;20077;-47
2023/02/20 04:34:07;;;;;;;10.73;5.82;;;;;;;7.17;63.83;99884.03;5095968;28;20024;-46
2023/02/20 04:36:33;;;;;;;9.07;6.03;;;;;;;7.05;64.41;99874.78;5095590;28;20042;-46
2023/02/20 04:39:00;;;;;;;8.10;5.70;;;;;;;6.85;64.80;99875.88;5114200;28;20019;-46
2023/02/20 04:41:27;;;;;;;7.18;5.03;;;;;;;6.75;64.84;99878.56;5113961;28;20020;-46
2023/02/20 04:44:29;;;;;;;11.32;5.95;;;;;;;6.50;64.88;99878.28;5113943;28;20089;-46
2023/02/20 04:46:40;;;;;;;14.07;9.07;;;;;;;6.45;66.31;99875.25;5113527;28;20035;-46
2023/02/20 04:49:08;;;;;;;38.67;33.78;;;;;;;6.38;66.99;99888.06;5112532;28;20031;-46
2023/02/20 04:51:36;;;;;;;12.70;8.13;;;;;;;6.29;66.63;99888.09;5113741;28;20039;-46
2023/02/20 04:54:04;;;;;;;7.05;5.78;;;;;;;6.33;67.68;99886.84;5103906;28;20059;-46
2023/02/20 04:56:31;;;;;;;8.07;6.03;;;;;;;6.28;66.94;99884.66;5075044;28;20069;-46
2023/02/20 04:59:04;;;;;;;11.13;6.95;;;;;;;6.15;67.33;99887.56;5074912;28;20031;-45
2023/02/20 05:01:41;;;;;;;11.63;6.70;;;;;;;5.93;68.34;99885.28;5093075;28;20125;-48
2023/02/20 05:04:21;;;;;;;13.30;7.28;;;;;;;5.80;68.83;99886.41;5093046;28;20016;-47
2023/02/20 05:06:53;;;;;;;13.77;7.68;;;;;;;5.85;69.19;99880.75;5074943;28;20056;-46
2023/02/20 05:09:32;;;;;;;9.73;6.05;;;;;;;5.92;69.70;99874.03;5093050;28;20028;-47
2023/02/20 05:12:10;;;;;;;9.52;5.82;;;;;;;6.07;67.98;99881.44;5074800;28;20020;-47
2023/02/20 05:14:55;;;;;;;8.50;6.38;;;;;;;6.13;68.46;99881.69;5092992;28;20028;-47
2023/02/20 05:17:31;;;;;;;;;;;;;;;;;;;;;
2023/02/20 05:20:19;;;;;;;14.32;7.15;;;;;;;6.00;66.70;99882.00;5077114;28;20039;-48
2023/02/20 05:22:47;;;;;;;13.80;8.18;;;;;;;6.06;67.99;99882.41;5074527;28;20028;-46
2023/02/20 05:25:20;;;;;;;11.35;7.10;;;;;;;6.06;68.39;99880.63;5074544;28;20032;-47
2023/02/20 05:27:48;;;;;;;9.35;6.05;;;;;;;6.09;68.46;99885.53;5092688;28;20039;-47
2023/02/20 05:30:21;;;;;;;14.85;7.05;;;;;;;6.15;68.77;99887.56;5074338;28;20032;-46
2023/02/20 05:32:51;;;;;;;10.27;6.63;;;;;;;6.31;69.18;99886.16;5092631;28;20027;-47
2023/02/20 05:35:18;;;;;;;9.30;5.95;;;;;;;6.37;68.50;99875.16;5074291;28;20093;-46
2023/02/20 05:38:00;;;;;;;12.32;6.93;;;;;;;6.44;68.51;99876.25;5086942;28;20059;-46
2023/02/20 05:40:34;;;;;;;15.05;5.80;;;;;;;6.44;67.56;99875.41;5074302;28;20057;-46
2023/02/20 05:43:03;;;;;;;11.50;6.70;;;;;;;6.46;67.35;99870.84;5074428;28;20119;-47
2023/02/20 05:45:30;;;;;;;12.88;7.72;;;;;;;6.53;67.33;99864.94;5074227;28;20036;-46
2023/02/20 05:47:57;;;;;;;12.75;6.93;;;;;;;6.50;67.62;99869.59;5057075;28;20490;-47
2023/02/20 05:50:24;;;;;;;14.25;6.43;;;;;;;6.39;67.25;99873.22;5092293;28;20099;-46
2023/02/20 05:53:11;;;;;;;15.82;6.93;;;;;;;6.30;67.13;99864.50;5074075;28;20020;-47
2023/02/20 05:55:44;;;;;;;9.75;6.75;;;;;;;6.22;68.22;99868.75;5106794;28;20044;-46
2023/02/20 05:58:19;;;;;;;20.75;7.05;;;;;;;6.23;67.58;99867.81;5112544;28;20032;-46
2023/02/20 06:01:03;;;;;;;26.20;8.88;;;;;;;6.16;67.41;99862.34;5094124;28;20020;-46
2023/02/20 06:03:32;;;;;;;19.25;7.20;;;;;;;6.17;67.54;99864.78;5112540;28;20028;-47
2023/02/20 06:05:59;;;;;;;14.73;8.55;;;;;;;6.15;68.12;99861.50;5077233;28;20389;-46
2023/02/20 06:08:49;;;;;;;11.48;6.32;;;;;;;6.03;67.83;99857.44;5094418;28;20033;-46
2023/02/20 06:11:31;;;;;;;8.73;7.15;;;;;;;5.95;67.76;99860.75;5094045;28;20031;-47
2023/02/20 06:14:38;;;;;;;14.90;7.78;;;;;;;5.65;68.74;99868.75;5093978;28;20436;-46
2023/02/20 06:17:03;;;;;;;15.60;8.05;;;;;;;5.40;69.43;99858.75;5096478;28;20043;-46
2023/02/20 06:19:31;;;;;;;10.02;6.65;;;;;;;5.40;69.81;99863.97;5112231;28;20397;-46
2023/02/20 06:22:00;;;;;;;10.70;6.22;;;;;;;5.55;69.25;99861.78;5112168;28;20098;-46
2023/02/20 06:24:29;;;;;;;11.52;7.03;;;;;;;5.63;68.63;99853.25;5112412;28;20031;-46
2023/02/20 06:26:56;;;;;;;12.15;6.68;;;;;;;5.65;69.06;99864.34;5093890;28;20031;-46
2023/02/20 06:29:23;;;;;;;15.13;7.57;;;;;;;5.83;69.33;99866.25;5112180;28;20034;-46
2023/02/20 06:32:01;;;;;;;12.38;7.55;;;;;;;5.89;69.32;99869.09;5110755;28;20028;-47
2023/02/20 06:34:45;;;;;;;14.73;10.15;;;;;;;5.84;69.22;99871.31;5112119;28;20117;-46
2023/02/20 06:37:22;;;;;;;;;;;;;;;;;;;;;
2023/02/20 06:40:12;;;;;;;17.20;7.07;;;;;;;6.13;67.97;99865.22;5112043;28;20084;-47
2023/02/20 06:42:52;;;;;;;9.88;7.93;;;;;;;6.23;67.62;99868.63;5112081;28;20466;-47
2023/02/20 06:45:18;;;;;;;13.27;8.07;;;;;;;6.34;66.69;99870.25;5110593;28;20026;-46
2023/02/20 06:48:10;;;;;;;26.52;6.93;;;;;;;6.37;67.24;99869.94;5110614;28;20024;-47
2023/02/20 06:57:10;;;;;;;21.02;7.32;;;;;;;7.00;65.96;99861.34;5009585;28;20453;-46
2023/02/20 06:59:46;;;;;;;12.50;7.40;;;;;;;7.11;65.12;99866.38;4994276;28;20473;-46
2023/02/20 07:02:18;;;;;;;12.55;7.10;;;;;;;7.31;64.24;99866.22;5011014;28;20038;-46
2023/02/20 07:05:08;;;;;;;26.75;7.97;;;;;;;7.78;63.78;99863.31;5013307;28;20049;-46
2023/02/20 07:07:47;;;;;;;30.23;8.23;;;;;;;8.36;62.09;99856.63;5013082;28;20038;-47
2023/02/20 07:10:31;;;;;;;16.23;7.75;;;;;;;8.84;60.12;99859.59;5012975;28;20046;-46
2023/02/20 07:13:06;;;;;;;33.17;9.00;;;;;;;9.31;59.15;99862.44;4982955;28;20034;-46
2023/02/20 07:15:53;;;;;;;29.80;9.07;;;;;;;10.12;58.56;99865.13;5013211;28;20109;-46
2023/02/20 07:18:28;;;;;;;25.27;7.65;;;;;;;10.87;56.14;99871.78;5013148;28;20060;-46
2023/02/20 07:21:14;;;;;;;7.82;5.45;;;;;;;11.67;55.79;99858.22;5010188;28;20033;-47
2023/02/20 07:23:40;;;;;;;14.23;6.75;;;;;;;12.35;52.59;99856.38;4996519;28;20085;-46
2023/02/20 07:26:27;;;;;;;13.32;7.15;;;;;;;12.62;48.93;99861.16;4980220;28;20034;-47
2023/02/20 07:29:07;;;;;;;17.23;7.07;;;;;;;12.72;50.09;99857.22;4987597;28;20026;-47
2023/02/20 07:31:35;;;;;;;8.63;7.07;;;;;;;13.15;48.70;99857.25;5090268;28;20560;-46
2023/02/20 07:34:05;;;;;;;13.20;7.28;;;;;;;13.43;47.66;99858.38;5093170;28;20052;-47
2023/02/20 07:36:41;;;;;;;13.95;7.70;;;;;;;13.37;47.89;99868.66;5094856;28;20054;-47
2023/02/20 07:39:12;;;;;;;17.05;7.55;;;;;;;12.86;47.47;99871.38;5075783;28;20086;-47
2023/02/20 07:41:41;;;;;;;14.32;7.30;;;;;;;12.47;47.93;99869.88;5073124;28;20584;-47
2023/02/20 07:44:10;;;;;;;22.17;7.60;;;;;;;12.53;48.15;99870.97;5093812;28;20017;-47
2023/02/20 07:46:38;;;;;;;19.20;7.22;;;;;;;12.61;47.30;99875.31;5094863;28;20081;-47
2023/02/20 07:49:06;;;;;;;18.05;7.30;;;;;;;12.52;48.01;99872.78;5094677;28;20051;-47
2023/02/20 07:51:33;;;;;;;24.30;8.02;;;;;;;12.51;47.12;99875.59;5094578;28;20085;-46
2023/02/20 07:54:01;;;;;;;48.80;9.75;;;;;;;12.22;47.90;99866.72;5095596;28;20052;-47
2023/02/20 07:56:28;;;;;;;22.75;8.10;;;;;;;12.09;49.20;99871.78;5114856;28;20019;-47
2023/02/20 07:58:55;;;;;;;28.65;9.40;;;;;;;12.20;49.49;99874.00;5114745;28;20031;-47
2023/02/20 08:01:22;;;;;;;12.48;6.97;;;;;;;12.03;49.88;99878.59;5114830;28;20015;-47
2023/02/20 08:03:48;;;;;;;13.73;7.97;;;;;;;11.87;50.19;99873.47;5114690;28;20038;-47
2023/02/20 08:06:19;;;;;;;14.95;7.90;;;;;;;11.60;51.26;99876.50;5114714;28;20020;-47
2023/02/20 08:08:57;;;;;;;10.98;8.30;;;;;;;11.42;52.15;99883.06;5114664;28;20032;-47
2023/02/20 08:11:24;;;;;;;10.93;8.45;;;;;;;11.23;52.41;99876.44;5095800;28;20030;-47
2023/02/20 08:13:54;;;;;;;18.02;9.75;;;;;;;10.86;53.07;99880.63;5114565;28;20100;-47
2023/02/20 08:16:21;;;;;;;15.35;7.95;;;;;;;10.61;54.02;99872.88;5114652;28;20034;-47
2023/02/20 08:18:48;;;;;;;13.95;8.15;;;;;;;10.79;54.37;99881.31;5114358;28;20442;-47
2023/02/20 08:21:15;;;;;;;12.27;8.38;;;;;;;10.91;54.37;99876.50;5114393;28;20413;-47
2023/02/20 08:23:42;;;;;;;12.23;7.95;;;;;;;11.04;53.96;99875.94;5114400;28;20087;-47
2023/02/20 08:26:10;;;;;;;17.02;8.73;;;;;;;11.03;54.33;99871.69;5114308;28;20076;-47
2023/02/20 08:28:37;;;;;;;18.40;11.05;;;;;;;11.18;54.35;99884.88;5114247;28;20110;-47
2023/02/20 08:31:05;;;;;;;14.00;8.05;;;;;;;11.03;54.64;99873.47;5114262;28;20024;-47
2023/02/20 08:33:38;;;;;;;10.75;7.05;;;;;;;11.49;55.12;99886.59;5114229;28;20020;-47
2023/02/20 08:36:21;;;;;;;10.93;7.28;;;;;;;12.43;53.40;99871.25;5113957;28;20043;-47
2023/02/20 08:39:02;;;;;;;17.13;8.63;;;;;;;13.68;51.76;99869.31;5114015;28;20046;-47
2023/02/20 08:41:29;;;;;;;12.48;7.30;;;;;;;14.12;49.02;99874.28;5113850;28;20117;-47
2023/02/20 08:44:11;;;;;;;14.50;6.90;;;;;;;14.23;49.46;99872.94;5095557;28;20084;-48
2023/02/20 08:46:59;;;;;;;10.57;6.47;;;;;;;15.01;48.09;99867.41;5112590;28;20028;-47
2023/02/20 08:49:26;;;;;;;24.77;7.55;;;;;;;15.57;46.77;99868.84;5095423;28;20539;-47
2023/02/20 08:51:55;;;;;;;7.10;6.18;;;;;;;16.19;45.57;99864.13;5113848;28;20019;-47
2023/02/20 08:54:22;;;;;;;12.98;6.22;;;;;;;16.72;44.07;99856.00;5113286;28;20059;-47
2023/02/20 08:56:50;;;;;;;19.85;6.75;;;;;;;16.77;43.80;99858.00;5113669;28;20030;-47
2023/02/20 08:59:17;;;;;;;15.23;6.65;;;;;;;16.59;43.79;99858.69;5095209;28;20028;-47
2023/02/20 09:01:44;;;;;;;14.15;6.05;;;;;;;16.45;44.12;99868.53;5113582;28;20030;-48
2023/02/20 09:04:12;;;;;;;25.00;6.72;;;;;;;16.63;44.55;99859.91;5113533;28;20023;-47
2023/02/20 09:06:38;;;;;;;21.65;6.72;;;;;;;17.51;42.93;99861.03;5113547;28;20141;-47
2023/02/20 09:09:06;;;;;;;20.98;6.65;;;;;;;17.99;41.55;99856.94;5112176;28;20489;-45
2023/02/20 09:11:32;;;;;;;12.27;6.13;;;;;;;18.74;40.92;99854.03;5113323;28;20397;-45
2023/02/20 09:13:59;;;;;;;12.13;5.43;;;;;;;19.85;38.75;99853.59;5113420;28;20161;-45
2023/02/20 09:16:27;;;;;;;8.45;5.30;;;;;;;20.38;37.71;99847.25;5113311;28;20096;-45
2023/02/20 09:18:55;;;;;;;8.55;5.82;;;;;;;21.08;35.98;99835.50;5113254;28;20435;-45
2023/02/20 09:21:23;;;;;;;23.90;6.07;;;;;;;21.64;35.37;99834.81;5113119;28;20027;-46
2023/02/20 09:23:50;;;;;;;7.95;5.85;;;;;;;22.13;34.00;99829.59;5112661;28;20024;-46
2023/02/20 09:26:17;;;;;;;11.48;5.47;;;;;;;22.25;33.64;99829.50;5113175;28;20022;-45
2023/02/20 09:28:44;;;;;;;14.13;5.07;;;;;;;22.90;32.54;99833.97;5095022;28;20049;-45
2023/02/20 09:31:11;;;;;;;13.07;6.03;;;;;;;23.73;32.20;99830.88;5113084;28;20481;-45
2023/02/20 09:33:38;;;;;;;9.13;4.70;;;;;;;22.97;31.80;99832.94;5112912;28;20106;-45
2023/02/20 09:36:09;;;;;;;11.35;5.15;;;;;;;23.00;32.04;99827.91;5112966;28;20111;-46
2023/02/20 09:38:36;;;;;;;8.07;5.13;;;;;;;23.31;31.27;99828.19;5077870;28;20409;-45
2023/02/20 09:41:04;;;;;;;21.20;5.90;;;;;;;23.31;31.74;99828.97;5112884;28;20042;-45
2023/02/20 09:44:05;;;;;;;8.38;4.68;;;;;;;22.74;32.02;99824.19;5112856;28;20016;-45
2023/02/20 09:46:32;;;;;;;12.23;6.10;;;;;;;23.23;31.38;99824.09;5112863;28;20548;-45
2023/02/20 09:49:03;;;;;;;13.00;5.50;;;;;;;23.81;31.24;99826.13;5112764;28;20496;-46
2023/02/20 09:51:42;;;;;;;9.40;5.10;;;;;;;24.50;30.35;99817.84;5112674;28;20024;-46
2023/02/20 09:54:17;;;;;;;21.70;14.82;;;;;;;25.37;29.22;99819.03;5087458;28;20585;-46
2023/02/20 09:56:50;;;;;;;10.43;6.45;;;;;;;25.97;27.98;99805.75;5092243;28;20051;-46
2023/02/20 09:59:27;;;;;;;14.70;6.00;;;;;;;26.55;27.81;99813.28;5092442;28;20042;-46
2023/02/20 10:02:02;;;;;;;9.10;4.60;;;;;;;27.16;26.21;99809.34;5092479;28;20447;-46
2023/02/20 10:04:43;;;;;;;17.73;6.35;;;;;;;26.85;26.45;99802.31;5092206;28;20082;-46
2023/02/20 10:07:36;;;;;;;13.85;5.53;;;;;;;26.24;27.34;99798.09;5092132;28;20032;-46
2023/02/20 10:10:51;;;;;;;13.52;5.18;;;;;;;26.36;26.82;99788.88;5092115;28;20106;-46
2023/02/20 10:13:25;;;;;;;13.43;5.78;;;;;;;26.59;26.32;99795.50;5090720;28;20077;-46
2023/02/20 10:16:24;;;;;;;16.00;5.10;;;;;;;26.52;26.65;99790.38;5092025;28;20110;-46
2023/02/20 10:19:14;;;;;;;15.55;11.40;;;;;;;25.59;27.14;99794.53;5073834;28;20034;-46
2023/02/20 10:22:10;;;;;;;27.60;8.38;;;;;;;25.57;27.10;99794.00;5091956;28;20035;-46
2023/02/20 10:28:02;;;;;;;34.90;30.92;;;;;;;26.72;26.91;99786.00;5091422;28;20086;-46
2023/02/20 10:30:33;;;;;;;73.47;67.28;;;;;;;26.92;26.17;99790.41;5091860;28;20023;-46
2023/02/20 10:33:10;;;;;;;21.08;19.02;;;;;;;26.84;25.98;99789.13;5073996;28;20058;-47
2023/02/20 10:35:49;;;;;;;14.98;8.80;;;;;;;26.57;25.97;99790.38;5096015;28;20048;-46
2023/02/20 10:38:49;;;;;;;12.07;5.13;;;;;;;26.34;26.62;99783.78;5077855;28;20036;-47
2023/02/20 10:41:58;;;;;;;10.85;4.97;;;;;;;26.21;26.08;99781.69;5095849;28;20077;-46
2023/02/20 10:45:35;;;;;;;6.60;4.38;;;;;;;26.18;26.79;99784.94;5068623;28;20036;-46
2023/02/20 10:48:08;;;;;;;36.08;32.65;;;;;;;25.50;27.20;99792.41;5094603;28;20489;-47
2023/02/20 10:50:45;;;;;;;58.83;9.18;;;;;;;25.56;26.99;99782.44;5095678;28;20398;-46
2023/02/20 10:53:26;;;;;;;32.58;12.63;;;;;;;25.06;27.88;99786.78;5095834;28;20032;-46
2023/02/20 10:56:21;;;;;;;15.38;8.95;;;;;;;25.05;27.52;99785.16;5112680;28;20043;-46
2023/02/20 10:59:16;;;;;;;;;;;;;;;;;;;;;
2023/02/20 11:02:03;;;;;;;12.07;9.00;;;;;;;26.43;26.11;99765.16;5116282;28;19912;-46
2023/02/20 11:05:02;;;;;;;17.40;10.45;;;;;;;26.78;25.68;99768.69;5113231;28;20035;-47
2023/02/20 11:07:29;;;;;;;17.52;5.65;;;;;;;27.18;25.03;99762.16;5100873;28;20081;-46
2023/02/20 11:09:56;;;;;;;11.30;9.40;;;;;;;27.39;24.75;99764.72;5115843;28;20515;-46
2023/02/20 11:12:50;;;;;;;28.90;21.63;;;;;;;27.19;25.31;99761.09;5115770;28;20019;-46
2023/02/20 11:15:44;;;;;;;13.63;9.18;;;;;;;27.36;24.76;99766.06;5097479;28;20104;-47
2023/02/20 11:18:48;;;;;;;10.68;9.13;;;;;;;27.38;25.17;99769.28;5115689;28;20489;-46
2023/02/20 11:21:45;;;;;;;9.07;5.50;;;;;;;27.38;24.34;99769.28;5114215;28;20100;-47
2023/02/20 11:24:30;;;;;;;16.77;11.57;;;;;;;27.10;24.92;99758.22;5097184;28;20028;-46
2023/02/20 11:27:23;;;;;;;13.10;8.73;;;;;;;27.52;24.36;99766.72;5115457;28;20566;-46
2023/02/20 11:30:29;;;;;;;21.90;14.65;;;;;;;27.48;24.51;99757.59;5115330;28;20110;-47
2023/02/20 11:33:28;;;;;;;18.40;15.98;;;;;;;27.40;24.90;99753.63;5115609;28;20093;-47
2023/02/20 11:36:27;;;;;;;23.05;10.40;;;;;;;27.65;23.75;99744.47;5115229;28;20375;-47
2023/02/20 11:39:45;;;;;;;25.13;10.57;;;;;;;27.09;24.48;99745.00;5096846;28;20469;-46
2023/02/20 11:42:48;;;;;;;22.88;7.45;;;;;;;27.53;24.46;99735.97;5096827;28;20023;-47
2023/02/20 11:45:28;;;;;;;9.07;3.92;;;;;;;27.65;23.96;99738.25;5114056;28;20405;-46
2023/02/20 11:48:26;;;;;;;8.00;3.80;;;;;;;27.74;23.91;99738.41;5096796;28;20035;-46
2023/02/20 11:50:53;;;;;;;12.02;3.90;;;;;;;27.81;23.48;99733.47;5086131;28;20032;-46
2023/02/20 11:53:24;;;;;;;9.18;3.17;;;;;;;27.86;23.40;99723.41;5113680;28;20413;-47
2023/02/20 11:56:17;;;;;;;9.80;3.25;;;;;;;27.88;22.99;99723.94;5114282;28;20070;-47
2023/02/20 11:58:45;;;;;;;9.57;3.70;;;;;;;27.54;23.29;99715.19;5114806;28;20031;-47
2023/02/20 12:01:39;;;;;;;15.73;3.80;;;;;;;27.48;23.44;99715.25;5114850;28;20486;-46
2023/02/20 12:04:20;;;;;;;23.02;4.18;;;;;;;27.55;23.79;99712.22;5114759;28;20262;-47
2023/02/20 12:06:53;;;;;;;38.65;4.72;;;;;;;27.49;23.24;99707.97;5114783;28;20035;-46
2023/02/20 12:09:36;;;;;;;16.95;4.45;;;;;;;27.35;23.87;99698.97;5113232;28;20019;-46
2023/02/20 12:12:04;;;;;;;20.45;4.57;;;;;;;27.19;23.83;99696.41;5114700;28;20028;-46
2023/02/20 12:14:31;;;;;;;27.90;4.28;;;;;;;26.94;24.35;99686.66;5114505;28;20389;-46
2023/02/20 12:17:28;;;;;;;33.92;5.18;;;;;;;26.93;23.89;99690.47;5096251;28;20061;-46
2023/02/20 12:20:28;;;;;;;7.05;4.32;;;;;;;27.12;23.60;99679.75;5114426;28;20068;-46
2023/02/20 12:23:31;;;;;;;9.77;6.20;;;;;;;27.06;23.60;99679.03;5114335;28;20077;-46
2023/02/20 12:26:36;;;;;;;8.80;3.50;;;;;;;27.00;23.76;99673.97;5040957;28;20032;-46
2023/02/20 12:29:05;;;;;;;32.50;4.80;;;;;;;26.72;24.01;99667.50;5114322;28;20507;-46
2023/02/20 12:32:14;;;;;;;11.57;3.10;;;;;;;26.39;24.25;99664.50;5114305;28;20031;-46
2023/02/20 12:35:02;;;;;;;24.48;4.40;;;;;;;26.44;24.65;99656.38;5114149;28;20043;-46
2023/02/20 12:37:44;;;;;;;16.83;3.53;;;;;;;26.53;24.25;99656.59;5114258;28;20024;-46
2023/02/20 12:40:41;;;;;;;7.43;2.97;;;;;;;26.95;23.72;99644.38;5113999;28;20038;-46
2023/02/20 12:43:49;;;;;;;6.63;2.95;;;;;;;27.02;22.80;99645.63;5114017;28;20023;-46
2023/02/20 12:47:01;;;;;;;9.57;3.78;;;;;;;26.78;23.64;99634.03;5113987;28;20027;-46
2023/02/20 12:49:49;;;;;;;7.47;3.03;;;;;;;26.84;23.64;99643.69;5096609;28;20126;-46
2023/02/20 12:52:35;;;;;;;11.70;3.03;;;;;;;27.06;23.00;99635.91;5113913;28;20023;-46
2023/02/20 12:55:11;;;;;;;6.28;3.42;;;;;;;26.45;24.02;99633.78;5113518;28;20048;-46
2023/02/20 12:57:46;;;;;;;7.25;3.55;;;;;;;26.43;23.73;99633.25;5113737;28;20519;-46
2023/02/20 13:00:34;;;;;;;9.95;3.97;;;;;;;26.65;23.28;99632.81;5095351;28;20027;-46
2023/02/20 13:03:34;;;;;;;13.90;3.20;;;;;;;26.87;23.50;99624.25;5089490;28;20528;-46
2023/02/20 13:06:16;;;;;;;10.75;3.55;;;;;;;26.48;23.40;99622.44;5113501;28;20511;-47